Airfield :
LOGIN :

Register | Disclaimer

   EN    FR    IT 

 










Legend :    VFR   Marginal VFR   IFR   Intensive IFR   Very Intensive IFR
Visi :
Ceiling :
>= 8 km
>= 3000ft
5 to 8 km
1000 to 3000 ft
1500m to 5 km
500 to 1000 ft
800 to 1500m
200 to 500 ft
< 800m
< 200 ft
Symbols :   Thunderstorms  Fog  Heavy snow  Heavy precipitations  Wind > 20 kt
SIGMETs :     Misc.  Thunderstorms  Icing  Turbulence  Mountain Waves  Volcanic Ashes







- Airport Elevation : 219 ft
- IATA code : DNR
- Download approach charts


LFRD - Dinard

CURRENT METAR :
  • 251200Z AUTO 04009KT 360V080 9999 FEW040 BKN054 10/M00 Q1014 NOSIG

EXPIRED METARs :
  • 251130Z AUTO 02010KT 350V100 9999 FEW040 BKN052 09/M01 Q1014 NOSIG
  • 251100Z AUTO 03011KT 360V070 9999 FEW044 SCT220 09/M00 Q1015 NOSIG
  • 251030Z AUTO 03012KT 360V070 9999 SCT041 SCT100 BKN200 09/M01 Q1015 NOSIG
  • 251000Z AUTO 03013KT 360V060 9999 SCT038 BKN100 09/M01 Q1015 NOSIG
  • 250930Z AUTO 02011KT 350V060 9999 SCT035 BKN100 BKN200 09/01 Q1015 NOSIG

TAF TAF LFRD
Valid from the 25 at 12:00 until the 26 at 12:00 UTC


251100Z 2512/2612 01012KT 9999 SCT040
TEMPO 2515/2518 35015G25KT
PROB30
TEMPO 2515/2518 5000 SHRA
TEMPO 2602/2612 02015G25KT 4000 SHRAGS BKN015CB
PROB30
TEMPO 2604/2612 3000 TSRAGS
ATIS : +33 2 99 16 81 50
No reported NOTAMs for that airfield.



MET'MAP, your aeronautical weather chart ! - Copyright ORBIFLY December 2007 - Disclaimer

ORBIFLY MET'MAP TEAM :

Programming & Development : Alexandra Zaïnal
Concept & Development : Baudouin d'Aumeries
Co-Development & Prog : Marc-Olivier Méhu
Technical & hardware support : Manuel Goepfert

Contact : metmap@orbifly.com




SOURCES & CREDITS :

   NOAA